createdAt,value
2022-07-25T00:00:42.078Z,34.58
2022-07-25T00:05:43.520Z,34.86
2022-07-25T00:10:44.950Z,34.47
2022-07-25T00:15:46.395Z,34.79
2022-07-25T00:20:47.829Z,34.47
2022-07-25T00:25:49.250Z,34.77
2022-07-25T00:30:50.761Z,34.95
2022-07-25T00:35:52.220Z,34.47
2022-07-25T00:40:55.476Z,34.89
2022-07-25T00:45:58.588Z,35.00
2022-07-25T00:51:00.986Z,34.95
2022-07-25T00:56:03.881Z,34.96
2022-07-25T01:01:05.370Z,34.95
2022-07-25T01:06:06.917Z,34.58
2022-07-25T01:11:08.333Z,35.00
2022-07-25T01:16:09.782Z,34.72
2022-07-25T01:21:11.205Z,34.50
2022-07-25T01:26:12.623Z,34.58
2022-07-25T01:31:14.091Z,34.68
2022-07-25T01:36:15.513Z,34.63
2022-07-25T01:41:22.687Z,35.05
2022-07-25T01:46:24.304Z,34.85
2022-07-25T01:51:26.439Z,34.67
2022-07-25T01:56:27.962Z,34.85
2022-07-25T02:01:33.231Z,35.10
2022-07-25T02:06:35.124Z,35.27
2022-07-25T02:11:36.609Z,35.12
2022-07-25T02:16:38.068Z,34.96
2022-07-25T02:21:39.559Z,35.25
2022-07-25T02:26:40.960Z,35.40
2022-07-25T02:31:42.439Z,35.14
2022-07-25T02:36:44.066Z,35.38
2022-07-25T02:41:45.515Z,35.36
2022-07-25T02:46:46.916Z,35.13
2022-07-25T02:51:48.389Z,35.27
2022-07-25T02:56:49.792Z,35.64
2022-07-25T03:01:51.235Z,35.53
2022-07-25T03:06:52.666Z,35.46
2022-07-25T03:11:54.129Z,35.87
2022-07-25T03:16:55.586Z,35.40
2022-07-25T03:21:57.070Z,35.56
2022-07-25T03:26:58.495Z,35.68
2022-07-25T03:32:00.459Z,35.50
2022-07-25T03:37:02.130Z,35.37
2022-07-25T03:42:03.684Z,36.01
2022-07-25T03:47:05.515Z,35.92
2022-07-25T03:52:06.942Z,35.87
2022-07-25T03:57:08.397Z,35.99
2022-07-25T04:02:09.922Z,35.53
2022-07-25T04:07:11.442Z,36.01
2022-07-25T04:12:12.855Z,35.66
2022-07-25T04:17:14.341Z,35.69
2022-07-25T04:22:15.893Z,36.25
2022-07-25T04:27:17.306Z,35.60
2022-07-25T04:32:23.301Z,36.07
2022-07-25T04:37:25.279Z,35.95
2022-07-25T04:42:27.761Z,35.99
2022-07-25T04:47:29.646Z,36.03
2022-07-25T04:52:31.046Z,36.08
2022-07-25T04:57:32.457Z,36.18
2022-07-25T05:02:34.239Z,35.88
2022-07-25T05:07:36.319Z,35.63
2022-07-25T05:12:37.756Z,35.76
2022-07-25T05:17:39.203Z,35.82
2022-07-25T05:22:40.707Z,35.78
2022-07-25T05:27:42.131Z,35.70
2022-07-25T05:32:43.597Z,35.90
2022-07-25T05:37:45.015Z,35.97
2022-07-25T05:42:46.468Z,36.24
2022-07-25T05:47:48.404Z,36.20
2022-07-25T05:52:49.956Z,36.20
2022-07-25T05:57:51.362Z,36.56
2022-07-25T06:02:52.950Z,36.82
2022-07-25T06:07:54.427Z,36.90
2022-07-25T06:12:55.849Z,36.42
2022-07-25T06:17:57.258Z,36.61
2022-07-25T06:22:58.846Z,37.05
2022-07-25T06:28:00.963Z,37.17
2022-07-25T06:33:02.373Z,36.75
2022-07-25T06:38:04.293Z,37.25
2022-07-25T06:43:05.810Z,37.34
2022-07-25T06:48:07.219Z,37.47
2022-07-25T06:53:08.695Z,37.27
2022-07-25T06:58:10.105Z,37.21
2022-07-25T07:03:11.566Z,37.36
2022-07-25T07:08:12.998Z,37.54
2022-07-25T07:13:15.225Z,37.59
2022-07-25T07:18:20.049Z,37.53
2022-07-25T07:23:21.492Z,37.74
2022-07-25T07:28:22.918Z,37.60
2022-07-25T07:33:24.321Z,37.53
2022-07-25T07:38:25.827Z,37.83
2022-07-25T07:43:30.055Z,37.90
2022-07-25T07:48:32.281Z,37.88
2022-07-25T07:53:52.353Z,38.00
2022-07-25T07:58:53.821Z,38.13
2022-07-25T08:03:55.233Z,38.27
2022-07-25T08:08:56.642Z,38.16
2022-07-25T08:13:58.065Z,38.23
2022-07-25T08:18:59.481Z,38.35
2022-07-25T08:24:00.911Z,38.40
2022-07-25T08:29:18.056Z,38.31
2022-07-25T08:34:22.402Z,38.41
2022-07-25T08:39:24.084Z,37.87
2022-07-25T08:44:26.897Z,38.16
2022-07-25T08:49:28.840Z,38.19
2022-07-25T08:54:31.070Z,38.35
2022-07-25T08:59:32.502Z,38.80
2022-07-25T09:04:35.268Z,38.88
2022-07-25T09:09:38.425Z,38.82
2022-07-25T09:14:43.242Z,38.71
2022-07-25T09:19:54.814Z,38.55
2022-07-25T09:24:56.284Z,38.05
2022-07-25T09:29:57.692Z,38.07
2022-07-25T09:34:59.106Z,37.90
2022-07-25T09:40:00.611Z,37.87
2022-07-25T09:45:15.151Z,37.78
2022-07-25T09:50:16.914Z,37.41
2022-07-25T09:55:20.003Z,37.41
2022-07-25T10:00:23.959Z,37.35
2022-07-25T10:05:43.638Z,37.49
2022-07-25T10:10:45.101Z,37.36
2022-07-25T10:15:48.664Z,37.40
2022-07-25T10:20:51.509Z,37.81
2022-07-25T10:26:16.154Z,37.82
2022-07-25T10:31:26.731Z,37.55
2022-07-25T10:36:41.975Z,38.13
2022-07-25T10:41:48.946Z,37.98
2022-07-25T10:46:50.455Z,37.65
2022-07-25T10:52:03.095Z,37.84
2022-07-25T10:57:05.872Z,37.69
2022-07-25T11:02:09.326Z,37.67
2022-07-25T11:07:12.259Z,37.31
2022-07-25T11:12:16.797Z,36.89
2022-07-25T11:17:20.117Z,37.06
2022-07-25T11:22:21.576Z,36.72
2022-07-25T11:27:23.847Z,36.94
2022-07-25T11:32:25.260Z,36.16
2022-07-25T11:37:26.694Z,36.60
2022-07-25T11:42:28.539Z,36.37
2022-07-25T11:47:33.146Z,36.18
2022-07-25T11:52:36.457Z,35.91
2022-07-25T11:57:40.042Z,35.90
2022-07-25T12:02:41.536Z,35.68
2022-07-25T12:07:47.122Z,35.33
2022-07-25T12:12:55.581Z,35.24
2022-07-25T12:17:57.707Z,35.29
2022-07-25T12:23:02.997Z,35.65
2022-07-25T12:28:04.894Z,35.25
2022-07-25T12:33:06.377Z,35.01
2022-07-25T12:38:08.273Z,34.97
2022-07-25T12:43:09.954Z,35.08
2022-07-25T12:48:12.686Z,35.13
2022-07-25T12:53:14.178Z,35.25
2022-07-25T12:58:15.590Z,35.29
2022-07-25T13:03:17.808Z,34.97
2022-07-25T13:08:19.254Z,34.99
2022-07-25T13:13:20.654Z,34.96
2022-07-25T13:18:22.065Z,35.04
2022-07-25T13:23:23.552Z,34.83
2022-07-25T13:28:24.962Z,35.25
2022-07-25T13:33:26.402Z,34.86
2022-07-25T13:38:27.809Z,35.08
2022-07-25T13:43:29.238Z,35.03
2022-07-25T13:48:31.473Z,35.27
2022-07-25T13:53:33.200Z,34.85
2022-07-25T13:58:34.729Z,34.59
2022-07-25T14:03:37.246Z,35.36
2022-07-25T14:08:41.694Z,34.95
2022-07-25T14:13:44.227Z,34.95
2022-07-25T14:18:45.653Z,34.47
2022-07-25T14:23:47.085Z,35.08
2022-07-25T14:28:48.601Z,34.77
2022-07-25T14:33:50.303Z,35.09
2022-07-25T14:38:51.756Z,34.87
2022-07-25T14:43:53.975Z,35.35
2022-07-25T14:48:55.496Z,35.38
2022-07-25T14:53:57.405Z,34.57
2022-07-25T14:58:58.858Z,34.91
2022-07-25T15:04:00.270Z,34.56
2022-07-25T15:09:01.717Z,34.90
2022-07-25T15:14:03.245Z,35.36
2022-07-25T15:19:16.408Z,35.05
2022-07-25T15:24:18.391Z,35.09
2022-07-25T15:29:20.630Z,34.96
2022-07-25T15:34:22.048Z,35.08
2022-07-25T15:39:23.538Z,35.18
2022-07-25T15:44:25.429Z,34.95
2022-07-25T15:49:26.862Z,35.34
2022-07-25T15:54:29.628Z,35.32
2022-07-25T15:59:31.181Z,35.21
2022-07-25T16:04:32.609Z,35.71
2022-07-25T16:09:34.213Z,35.36
2022-07-25T16:14:35.625Z,35.84
2022-07-25T16:19:37.049Z,35.80
2022-07-25T16:24:38.566Z,35.72
2022-07-25T16:29:39.980Z,35.71
2022-07-25T16:34:41.604Z,35.41
2022-07-25T16:39:43.013Z,35.82
2022-07-25T16:44:44.422Z,35.39
2022-07-25T16:49:45.830Z,35.90
2022-07-25T16:54:47.240Z,35.65
2022-07-25T16:59:48.734Z,36.16
2022-07-25T17:04:50.300Z,36.16
2022-07-25T17:09:51.749Z,35.98
2022-07-25T17:14:53.698Z,35.86
2022-07-25T17:19:59.579Z,36.43
2022-07-25T17:25:01.603Z,36.53
2022-07-25T17:30:04.297Z,36.35
2022-07-25T17:35:05.826Z,36.16
2022-07-25T17:40:08.309Z,36.21
2022-07-25T17:45:10.490Z,36.30
2022-07-25T17:50:12.031Z,36.39
2022-07-25T17:55:13.535Z,35.93
2022-07-25T18:00:15.171Z,36.17
2022-07-25T18:05:17.148Z,35.76
2022-07-25T18:10:20.979Z,35.76
2022-07-25T18:15:22.393Z,35.80
2022-07-25T18:20:24.130Z,36.00
2022-07-25T18:25:25.653Z,36.71
2022-07-25T18:30:29.303Z,36.96
2022-07-25T18:35:30.889Z,37.12
2022-07-25T18:40:32.289Z,37.70
2022-07-25T18:45:36.225Z,37.98
2022-07-25T18:50:37.934Z,38.58
2022-07-25T18:55:39.357Z,38.28
2022-07-25T19:00:40.771Z,38.69
2022-07-25T19:05:42.655Z,39.18
2022-07-25T19:10:44.084Z,39.01
2022-07-25T19:15:45.537Z,39.51
2022-07-25T19:20:47.020Z,39.63
2022-07-25T19:25:49.029Z,39.85
2022-07-25T19:30:50.497Z,39.58
2022-07-25T19:35:52.337Z,39.86
2022-07-25T19:40:54.059Z,40.44
2022-07-25T19:45:55.563Z,40.49
2022-07-25T19:50:57.078Z,40.35
2022-07-25T19:55:58.492Z,41.01
2022-07-25T20:00:59.964Z,40.69
2022-07-25T20:06:06.060Z,41.27
2022-07-25T20:11:09.400Z,41.29
2022-07-25T20:16:10.985Z,41.60
2022-07-25T20:21:12.420Z,41.10
2022-07-25T20:26:13.932Z,41.31
2022-07-25T20:31:16.567Z,41.74
2022-07-25T20:36:18.232Z,42.16
2022-07-25T20:41:19.701Z,42.29
2022-07-25T20:46:21.165Z,42.83
2022-07-25T20:51:22.660Z,43.26
2022-07-25T20:56:24.074Z,43.07
2022-07-25T21:01:25.539Z,43.25
2022-07-25T21:06:27.523Z,43.96
2022-07-25T21:11:28.986Z,44.25
2022-07-25T21:16:30.470Z,44.03
2022-07-25T21:21:31.918Z,44.29
2022-07-25T21:26:33.378Z,44.65
2022-07-25T21:31:34.874Z,45.09
2022-07-25T21:36:36.541Z,45.12
2022-07-25T21:41:37.973Z,45.35
2022-07-25T21:46:39.377Z,45.46
2022-07-25T21:51:41.252Z,45.44
2022-07-25T21:56:44.412Z,45.72
2022-07-25T22:01:45.890Z,46.12
2022-07-25T22:06:47.326Z,46.04
2022-07-25T22:11:48.761Z,46.04
2022-07-25T22:16:50.286Z,45.49
2022-07-25T22:21:51.713Z,45.80
2022-07-25T22:26:53.378Z,45.67
2022-07-25T22:31:54.878Z,45.81
2022-07-25T22:36:56.722Z,45.75
2022-07-25T22:41:58.185Z,46.13
2022-07-25T22:46:59.603Z,45.95
2022-07-25T22:52:01.021Z,45.63
2022-07-25T22:57:02.584Z,45.79
2022-07-25T23:02:04.005Z,45.55
2022-07-25T23:07:05.419Z,45.46
2022-07-25T23:12:07.077Z,45.61
2022-07-25T23:17:17.197Z,45.49
2022-07-25T23:22:18.919Z,46.06
2022-07-25T23:27:20.363Z,45.45
2022-07-25T23:32:21.777Z,45.58
2022-07-25T23:37:23.187Z,45.72
2022-07-25T23:42:24.598Z,46.01
2022-07-25T23:47:28.498Z,46.16
2022-07-25T23:52:41.103Z,46.08
2022-07-25T23:57:43.006Z,45.95
